sensor_id;sensor_type;location;lat;lon;timestamp;P1;durP1;ratioP1;P2;durP2;ratioP2
2784;SDS011;57944;48.722;9.316;2024-01-10T00:00:10;28.67;;;12.20;;
2784;SDS011;57944;48.722;9.316;2024-01-10T00:02:44;26.97;;;14.27;;
2784;SDS011;57944;48.722;9.316;2024-01-10T00:05:15;22.83;;;12.10;;
2784;SDS011;57944;48.722;9.316;2024-01-10T00:07:46;26.73;;;13.30;;
2784;SDS011;57944;48.722;9.316;2024-01-10T00:10:17;33.07;;;15.13;;
2784;SDS011;57944;48.722;9.316;2024-01-10T00:12:48;23.90;;;12.37;;
2784;SDS011;57944;48.722;9.316;2024-01-10T00:15:18;31.23;;;13.20;;
2784;SDS011;57944;48.722;9.316;2024-01-10T00:17:52;31.03;;;14.37;;
2784;SDS011;57944;48.722;9.316;2024-01-10T00:20:23;31.87;;;12.70;;
2784;SDS011;57944;48.722;9.316;2024-01-10T00:22:53;26.70;;;13.40;;
2784;SDS011;57944;48.722;9.316;2024-01-10T00:25:24;37.27;;;13.77;;
2784;SDS011;57944;48.722;9.316;2024-01-10T00:27:54;24.90;;;13.07;;
2784;SDS011;57944;48.722;9.316;2024-01-10T00:30:28;21.50;;;12.97;;
2784;SDS011;57944;48.722;9.316;2024-01-10T00:33:01;27.47;;;12.67;;
2784;SDS011;57944;48.722;9.316;2024-01-10T00:35:32;27.13;;;14.10;;
2784;SDS011;57944;48.722;9.316;2024-01-10T00:38:03;26.77;;;12.60;;
2784;SDS011;57944;48.722;9.316;2024-01-10T00:40:34;20.37;;;9.87;;
2784;SDS011;57944;48.722;9.316;2024-01-10T00:43:05;28.93;;;13.60;;
2784;SDS011;57944;48.722;9.316;2024-01-10T00:45:35;24.30;;;13.33;;
2784;SDS011;57944;48.722;9.316;2024-01-10T00:48:09;22.73;;;12.50;;
2784;SDS011;57944;48.722;9.316;2024-01-10T00:50:39;25.93;;;13.57;;
2784;SDS011;57944;48.722;9.316;2024-01-10T00:53:10;24.90;;;13.30;;
2784;SDS011;57944;48.722;9.316;2024-01-10T00:55:41;26.73;;;12.00;;
2784;SDS011;57944;48.722;9.316;2024-01-10T00:58:12;22.47;;;12.50;;
2784;SDS011;57944;48.722;9.316;2024-01-10T01:00:42;26.30;;;13.17;;
2784;SDS011;57944;48.722;9.316;2024-01-10T01:03:16;25.37;;;11.10;;
2784;SDS011;57944;48.722;9.316;2024-01-10T01:05:47;24.67;;;12.83;;
2784;SDS011;57944;48.722;9.316;2024-01-10T01:08:18;27.90;;;12.73;;
2784;SDS011;57944;48.722;9.316;2024-01-10T01:10:48;23.53;;;11.33;;
2784;SDS011;57944;48.722;9.316;2024-01-10T01:13:19;24.67;;;12.23;;
2784;SDS011;57944;48.722;9.316;2024-01-10T01:15:49;22.57;;;12.13;;
2784;SDS011;57944;48.722;9.316;2024-01-10T01:18:23;28.87;;;12.77;;
2784;SDS011;57944;48.722;9.316;2024-01-10T01:20:53;24.43;;;11.03;;
2784;SDS011;57944;48.722;9.316;2024-01-10T01:23:24;27.23;;;12.57;;
2784;SDS011;57944;48.722;9.316;2024-01-10T01:26:04;29.63;;;13.33;;
2784;SDS011;57944;48.722;9.316;2024-01-10T01:28:35;30.73;;;13.57;;
2784;SDS011;57944;48.722;9.316;2024-01-10T01:31:06;28.90;;;13.10;;
2784;SDS011;57944;48.722;9.316;2024-01-10T01:33:39;30.80;;;16.07;;
2784;SDS011;57944;48.722;9.316;2024-01-10T01:36:10;28.30;;;13.53;;
2784;SDS011;57944;48.722;9.316;2024-01-10T01:38:40;22.90;;;13.53;;
2784;SDS011;57944;48.722;9.316;2024-01-10T01:41:11;28.20;;;13.47;;
2784;SDS011;57944;48.722;9.316;2024-01-10T01:43:42;27.93;;;14.10;;
2784;SDS011;57944;48.722;9.316;2024-01-10T01:46:13;23.07;;;13.47;;
2784;SDS011;57944;48.722;9.316;2024-01-10T01:48:47;36.70;;;12.87;;
2784;SDS011;57944;48.722;9.316;2024-01-10T01:51:19;24.23;;;13.40;;
2784;SDS011;57944;48.722;9.316;2024-01-10T01:53:51;26.23;;;13.77;;
2784;SDS011;57944;48.722;9.316;2024-01-10T01:56:23;32.40;;;13.60;;
2784;SDS011;57944;48.722;9.316;2024-01-10T01:58:53;25.00;;;12.67;;
2784;SDS011;57944;48.722;9.316;2024-01-10T02:01:25;36.80;;;13.80;;
2784;SDS011;57944;48.722;9.316;2024-01-10T02:03:59;30.37;;;14.33;;
2784;SDS011;57944;48.722;9.316;2024-01-10T02:06:31;28.40;;;14.30;;
2784;SDS011;57944;48.722;9.316;2024-01-10T02:09:01;19.97;;;13.53;;
2784;SDS011;57944;48.722;9.316;2024-01-10T02:11:32;29.80;;;14.03;;
2784;SDS011;57944;48.722;9.316;2024-01-10T02:14:03;25.27;;;13.37;;
2784;SDS011;57944;48.722;9.316;2024-01-10T02:16:34;28.03;;;12.50;;
2784;SDS011;57944;48.722;9.316;2024-01-10T02:19:20;29.00;;;14.00;;
2784;SDS011;57944;48.722;9.316;2024-01-10T02:21:53;28.70;;;14.63;;
2784;SDS011;57944;48.722;9.316;2024-01-10T02:24:24;34.60;;;14.90;;
2784;SDS011;57944;48.722;9.316;2024-01-10T02:26:57;33.17;;;15.63;;
2784;SDS011;57944;48.722;9.316;2024-01-10T02:29:29;25.43;;;12.33;;
2784;SDS011;57944;48.722;9.316;2024-01-10T02:32:00;28.33;;;15.20;;
2784;SDS011;57944;48.722;9.316;2024-01-10T02:34:31;27.63;;;12.20;;
2784;SDS011;57944;48.722;9.316;2024-01-10T02:37:02;26.73;;;13.10;;
2784;SDS011;57944;48.722;9.316;2024-01-10T02:39:33;27.03;;;12.57;;
2784;SDS011;57944;48.722;9.316;2024-01-10T02:42:07;27.93;;;13.57;;
2784;SDS011;57944;48.722;9.316;2024-01-10T02:44:38;27.90;;;13.73;;
2784;SDS011;57944;48.722;9.316;2024-01-10T02:47:08;31.63;;;12.70;;
2784;SDS011;57944;48.722;9.316;2024-01-10T02:49:40;21.30;;;12.57;;
2784;SDS011;57944;48.722;9.316;2024-01-10T02:52:11;25.07;;;12.80;;
2784;SDS011;57944;48.722;9.316;2024-01-10T02:54:42;28.10;;;13.60;;
2784;SDS011;57944;48.722;9.316;2024-01-10T02:57:15;27.17;;;14.30;;
2784;SDS011;57944;48.722;9.316;2024-01-10T02:59:45;30.50;;;12.50;;
2784;SDS011;57944;48.722;9.316;2024-01-10T03:02:16;31.80;;;13.43;;
2784;SDS011;57944;48.722;9.316;2024-01-10T03:04:47;20.67;;;13.40;;
2784;SDS011;57944;48.722;9.316;2024-01-10T03:07:18;25.83;;;12.90;;
2784;SDS011;57944;48.722;9.316;2024-01-10T03:09:51;22.23;;;13.00;;
2784;SDS011;57944;48.722;9.316;2024-01-10T03:12:24;23.90;;;13.20;;
2784;SDS011;57944;48.722;9.316;2024-01-10T03:14:55;23.60;;;12.90;;
2784;SDS011;57944;48.722;9.316;2024-01-10T03:17:25;30.80;;;13.93;;
2784;SDS011;57944;48.722;9.316;2024-01-10T03:19:56;23.70;;;13.07;;
2784;SDS011;57944;48.722;9.316;2024-01-10T03:22:27;23.17;;;13.80;;
2784;SDS011;57944;48.722;9.316;2024-01-10T03:24:58;32.97;;;14.63;;
2784;SDS011;57944;48.722;9.316;2024-01-10T03:27:32;24.73;;;14.77;;
2784;SDS011;57944;48.722;9.316;2024-01-10T03:30:02;29.57;;;13.20;;
2784;SDS011;57944;48.722;9.316;2024-01-10T03:32:34;22.93;;;13.60;;
2784;SDS011;57944;48.722;9.316;2024-01-10T03:35:06;19.23;;;10.70;;
2784;SDS011;57944;48.722;9.316;2024-01-10T03:37:37;30.53;;;13.70;;
2784;SDS011;57944;48.722;9.316;2024-01-10T03:40:08;27.50;;;13.47;;
2784;SDS011;57944;48.722;9.316;2024-01-10T03:42:41;27.30;;;12.50;;
2784;SDS011;57944;48.722;9.316;2024-01-10T03:45:12;27.07;;;13.63;;
2784;SDS011;57944;48.722;9.316;2024-01-10T03:47:48;26.63;;;13.53;;
2784;SDS011;57944;48.722;9.316;2024-01-10T03:50:19;35.13;;;14.80;;
2784;SDS011;57944;48.722;9.316;2024-01-10T03:52:50;35.57;;;14.20;;
2784;SDS011;57944;48.722;9.316;2024-01-10T03:55:21;23.73;;;13.30;;
2784;SDS011;57944;48.722;9.316;2024-01-10T03:57:54;26.37;;;11.80;;
2784;SDS011;57944;48.722;9.316;2024-01-10T04:00:25;20.87;;;12.90;;
2784;SDS011;57944;48.722;9.316;2024-01-10T04:02:56;27.03;;;12.57;;
2784;SDS011;57944;48.722;9.316;2024-01-10T04:05:26;18.87;;;11.80;;
2784;SDS011;57944;48.722;9.316;2024-01-10T04:07:57;25.23;;;11.20;;
2784;SDS011;57944;48.722;9.316;2024-01-10T04:10:28;20.57;;;11.30;;
2784;SDS011;57944;48.722;9.316;2024-01-10T04:13:01;23.23;;;10.97;;
2784;SDS011;57944;48.722;9.316;2024-01-10T04:15:31;19.63;;;10.67;;
2784;SDS011;57944;48.722;9.316;2024-01-10T04:18:03;23.80;;;12.60;;
2784;SDS011;57944;48.722;9.316;2024-01-10T04:20:34;24.10;;;11.90;;
2784;SDS011;57944;48.722;9.316;2024-01-10T04:23:04;33.90;;;12.87;;
2784;SDS011;57944;48.722;9.316;2024-01-10T04:25:35;25.37;;;12.07;;
2784;SDS011;57944;48.722;9.316;2024-01-10T04:28:08;20.63;;;10.90;;
2784;SDS011;57944;48.722;9.316;2024-01-10T04:30:39;25.60;;;11.67;;
2784;SDS011;57944;48.722;9.316;2024-01-10T04:33:09;21.00;;;10.80;;
2784;SDS011;57944;48.722;9.316;2024-01-10T04:35:40;25.07;;;11.17;;
2784;SDS011;57944;48.722;9.316;2024-01-10T04:38:11;28.03;;;12.20;;
2784;SDS011;57944;48.722;9.316;2024-01-10T04:40:41;21.47;;;10.10;;
2784;SDS011;57944;48.722;9.316;2024-01-10T04:43:14;21.30;;;9.30;;
2784;SDS011;57944;48.722;9.316;2024-01-10T04:45:45;24.83;;;12.67;;
2784;SDS011;57944;48.722;9.316;2024-01-10T04:48:16;17.50;;;8.43;;
2784;SDS011;57944;48.722;9.316;2024-01-10T04:50:46;20.17;;;9.97;;
2784;SDS011;57944;48.722;9.316;2024-01-10T04:53:17;20.33;;;9.60;;
2784;SDS011;57944;48.722;9.316;2024-01-10T04:55:48;20.90;;;10.50;;
2784;SDS011;57944;48.722;9.316;2024-01-10T04:58:21;31.07;;;12.10;;
2784;SDS011;57944;48.722;9.316;2024-01-10T05:00:52;20.40;;;11.13;;
2784;SDS011;57944;48.722;9.316;2024-01-10T05:03:22;26.57;;;11.17;;
2784;SDS011;57944;48.722;9.316;2024-01-10T05:05:53;28.73;;;11.87;;
2784;SDS011;57944;48.722;9.316;2024-01-10T05:08:24;20.73;;;10.87;;
2784;SDS011;57944;48.722;9.316;2024-01-10T05:10:55;25.50;;;11.87;;
2784;SDS011;57944;48.722;9.316;2024-01-10T05:13:28;28.30;;;11.80;;
2784;SDS011;57944;48.722;9.316;2024-01-10T05:15:59;21.20;;;9.97;;
2784;SDS011;57944;48.722;9.316;2024-01-10T05:18:30;20.77;;;9.83;;
2784;SDS011;57944;48.722;9.316;2024-01-10T05:21:01;23.43;;;11.40;;
2784;SDS011;57944;48.722;9.316;2024-01-10T05:23:32;30.43;;;9.97;;
2784;SDS011;57944;48.722;9.316;2024-01-10T05:26:03;20.27;;;9.23;;
2784;SDS011;57944;48.722;9.316;2024-01-10T05:28:36;25.63;;;13.33;;
2784;SDS011;57944;48.722;9.316;2024-01-10T05:31:07;25.07;;;12.60;;
2784;SDS011;57944;48.722;9.316;2024-01-10T05:33:38;21.37;;;12.60;;
2784;SDS011;57944;48.722;9.316;2024-01-10T05:36:09;21.97;;;11.60;;
2784;SDS011;57944;48.722;9.316;2024-01-10T05:38:40;22.10;;;11.63;;
2784;SDS011;57944;48.722;9.316;2024-01-10T05:41:11;21.27;;;10.83;;
2784;SDS011;57944;48.722;9.316;2024-01-10T05:43:44;26.50;;;11.93;;
2784;SDS011;57944;48.722;9.316;2024-01-10T05:46:14;31.27;;;11.77;;
2784;SDS011;57944;48.722;9.316;2024-01-10T05:48:46;24.87;;;12.70;;
2784;SDS011;57944;48.722;9.316;2024-01-10T05:51:17;26.13;;;11.50;;
2784;SDS011;57944;48.722;9.316;2024-01-10T05:53:48;35.70;;;12.20;;
2784;SDS011;57944;48.722;9.316;2024-01-10T05:56:18;21.40;;;12.07;;
2784;SDS011;57944;48.722;9.316;2024-01-10T05:58:52;23.30;;;11.93;;
2784;SDS011;57944;48.722;9.316;2024-01-10T06:01:23;21.50;;;12.17;;
2784;SDS011;57944;48.722;9.316;2024-01-10T06:03:53;22.73;;;12.50;;
2784;SDS011;57944;48.722;9.316;2024-01-10T06:06:24;24.57;;;11.23;;
2784;SDS011;57944;48.722;9.316;2024-01-10T06:08:54;24.53;;;12.00;;
2784;SDS011;57944;48.722;9.316;2024-01-10T06:11:25;21.87;;;11.70;;
2784;SDS011;57944;48.722;9.316;2024-01-10T06:13:59;23.70;;;11.40;;
2784;SDS011;57944;48.722;9.316;2024-01-10T06:16:29;20.70;;;12.57;;
2784;SDS011;57944;48.722;9.316;2024-01-10T06:19:00;29.00;;;12.80;;
2784;SDS011;57944;48.722;9.316;2024-01-10T06:21:31;27.20;;;12.53;;
2784;SDS011;57944;48.722;9.316;2024-01-10T06:24:01;23.57;;;10.90;;
2784;SDS011;57944;48.722;9.316;2024-01-10T06:26:32;23.60;;;11.80;;
2784;SDS011;57944;48.722;9.316;2024-01-10T06:29:05;34.93;;;12.77;;
2784;SDS011;57944;48.722;9.316;2024-01-10T06:31:36;27.03;;;12.23;;
2784;SDS011;57944;48.722;9.316;2024-01-10T06:34:06;23.67;;;13.37;;
2784;SDS011;57944;48.722;9.316;2024-01-10T06:36:37;31.90;;;12.83;;
2784;SDS011;57944;48.722;9.316;2024-01-10T06:39:09;32.03;;;14.13;;
2784;SDS011;57944;48.722;9.316;2024-01-10T06:41:41;27.07;;;11.60;;
2784;SDS011;57944;48.722;9.316;2024-01-10T06:44:14;25.07;;;12.60;;
2784;SDS011;57944;48.722;9.316;2024-01-10T06:46:45;27.47;;;13.73;;
2784;SDS011;57944;48.722;9.316;2024-01-10T06:49:16;22.17;;;12.10;;
2784;SDS011;57944;48.722;9.316;2024-01-10T06:51:47;37.53;;;13.37;;
2784;SDS011;57944;48.722;9.316;2024-01-10T06:54:18;29.37;;;13.77;;
2784;SDS011;57944;48.722;9.316;2024-01-10T06:56:48;27.73;;;12.63;;
2784;SDS011;57944;48.722;9.316;2024-01-10T06:59:21;32.63;;;13.40;;
2784;SDS011;57944;48.722;9.316;2024-01-10T07:01:52;30.10;;;14.63;;
2784;SDS011;57944;48.722;9.316;2024-01-10T07:04:23;25.07;;;13.00;;
2784;SDS011;57944;48.722;9.316;2024-01-10T07:06:54;24.70;;;13.07;;
2784;SDS011;57944;48.722;9.316;2024-01-10T07:09:25;32.53;;;13.47;;
2784;SDS011;57944;48.722;9.316;2024-01-10T07:11:55;28.77;;;12.67;;
2784;SDS011;57944;48.722;9.316;2024-01-10T07:14:28;30.33;;;14.73;;
2784;SDS011;57944;48.722;9.316;2024-01-10T07:16:59;28.10;;;13.27;;
2784;SDS011;57944;48.722;9.316;2024-01-10T07:19:30;32.40;;;14.60;;
2784;SDS011;57944;48.722;9.316;2024-01-10T07:22:00;53.97;;;14.50;;
2784;SDS011;57944;48.722;9.316;2024-01-10T07:24:31;40.33;;;13.83;;
2784;SDS011;57944;48.722;9.316;2024-01-10T07:27:02;25.63;;;12.87;;
2784;SDS011;57944;48.722;9.316;2024-01-10T07:29:37;28.03;;;14.63;;
2784;SDS011;57944;48.722;9.316;2024-01-10T07:32:07;26.17;;;12.77;;
2784;SDS011;57944;48.722;9.316;2024-01-10T07:34:40;30.87;;;14.03;;
2784;SDS011;57944;48.722;9.316;2024-01-10T07:37:11;29.43;;;13.50;;
2784;SDS011;57944;48.722;9.316;2024-01-10T07:39:47;24.30;;;12.90;;
2784;SDS011;57944;48.722;9.316;2024-01-10T07:42:18;26.50;;;14.37;;
2784;SDS011;57944;48.722;9.316;2024-01-10T07:44:51;26.73;;;15.20;;
2784;SDS011;57944;48.722;9.316;2024-01-10T07:47:23;24.73;;;12.37;;
2784;SDS011;57944;48.722;9.316;2024-01-10T07:49:54;27.73;;;14.87;;
2784;SDS011;57944;48.722;9.316;2024-01-10T07:52:24;27.73;;;15.40;;
2784;SDS011;57944;48.722;9.316;2024-01-10T07:54:55;33.20;;;14.30;;
2784;SDS011;57944;48.722;9.316;2024-01-10T07:57:26;34.53;;;15.07;;
2784;SDS011;57944;48.722;9.316;2024-01-10T07:59:59;30.83;;;18.33;;
2784;SDS011;57944;48.722;9.316;2024-01-10T08:02:34;31.13;;;13.53;;
2784;SDS011;57944;48.722;9.316;2024-01-10T08:05:04;25.87;;;13.30;;
2784;SDS011;57944;48.722;9.316;2024-01-10T08:07:37;34.17;;;16.00;;
2784;SDS011;57944;48.722;9.316;2024-01-10T08:10:09;33.27;;;15.30;;
2784;SDS011;57944;48.722;9.316;2024-01-10T08:12:40;40.17;;;14.63;;
2784;SDS011;57944;48.722;9.316;2024-01-10T08:15:13;40.83;;;14.57;;
2784;SDS011;57944;48.722;9.316;2024-01-10T08:17:44;28.57;;;16.53;;
2784;SDS011;57944;48.722;9.316;2024-01-10T08:20:15;25.20;;;13.73;;
2784;SDS011;57944;48.722;9.316;2024-01-10T08:22:48;25.77;;;14.87;;
2784;SDS011;57944;48.722;9.316;2024-01-10T08:25:20;27.63;;;14.50;;
2784;SDS011;57944;48.722;9.316;2024-01-10T08:27:50;27.57;;;16.47;;
2784;SDS011;57944;48.722;9.316;2024-01-10T08:30:26;32.03;;;15.00;;
2784;SDS011;57944;48.722;9.316;2024-01-10T08:32:56;25.83;;;14.33;;
2784;SDS011;57944;48.722;9.316;2024-01-10T08:35:27;27.03;;;14.33;;
2784;SDS011;57944;48.722;9.316;2024-01-10T08:37:58;26.80;;;14.70;;
2784;SDS011;57944;48.722;9.316;2024-01-10T08:40:31;29.20;;;14.30;;
2784;SDS011;57944;48.722;9.316;2024-01-10T08:43:02;27.83;;;14.10;;
2784;SDS011;57944;48.722;9.316;2024-01-10T08:45:35;23.60;;;15.90;;
2784;SDS011;57944;48.722;9.316;2024-01-10T08:48:06;27.97;;;12.97;;
2784;SDS011;57944;48.722;9.316;2024-01-10T08:50:38;29.80;;;15.03;;
2784;SDS011;57944;48.722;9.316;2024-01-10T08:53:09;29.13;;;14.80;;
2784;SDS011;57944;48.722;9.316;2024-01-10T08:55:40;27.07;;;14.13;;
2784;SDS011;57944;48.722;9.316;2024-01-10T08:58:10;38.17;;;15.60;;
2784;SDS011;57944;48.722;9.316;2024-01-10T09:00:44;32.53;;;16.80;;
2784;SDS011;57944;48.722;9.316;2024-01-10T09:03:14;33.07;;;15.73;;
2784;SDS011;57944;48.722;9.316;2024-01-10T09:05:46;27.70;;;15.67;;
2784;SDS011;57944;48.722;9.316;2024-01-10T09:08:33;30.00;;;15.90;;
2784;SDS011;57944;48.722;9.316;2024-01-10T09:11:04;32.07;;;16.10;;
2784;SDS011;57944;48.722;9.316;2024-01-10T09:13:34;34.40;;;15.80;;
2784;SDS011;57944;48.722;9.316;2024-01-10T09:16:10;31.23;;;17.20;;
2784;SDS011;57944;48.722;9.316;2024-01-10T09:18:41;28.97;;;15.00;;
2784;SDS011;57944;48.722;9.316;2024-01-10T09:21:11;31.90;;;16.00;;
2784;SDS011;57944;48.722;9.316;2024-01-10T09:23:42;37.00;;;15.37;;
2784;SDS011;57944;48.722;9.316;2024-01-10T09:26:14;28.53;;;14.50;;
2784;SDS011;57944;48.722;9.316;2024-01-10T09:28:45;36.00;;;16.80;;
2784;SDS011;57944;48.722;9.316;2024-01-10T09:31:19;38.37;;;19.87;;
2784;SDS011;57944;48.722;9.316;2024-01-10T09:33:49;34.10;;;17.27;;
2784;SDS011;57944;48.722;9.316;2024-01-10T09:36:20;31.13;;;16.13;;
2784;SDS011;57944;48.722;9.316;2024-01-10T09:38:50;29.73;;;15.57;;
2784;SDS011;57944;48.722;9.316;2024-01-10T09:41:21;30.20;;;15.63;;
2784;SDS011;57944;48.722;9.316;2024-01-10T09:43:54;39.97;;;18.47;;
2784;SDS011;57944;48.722;9.316;2024-01-10T09:46:27;28.10;;;15.20;;
2784;SDS011;57944;48.722;9.316;2024-01-10T09:49:00;29.90;;;14.60;;
2784;SDS011;57944;48.722;9.316;2024-01-10T09:51:31;29.03;;;17.90;;
2784;SDS011;57944;48.722;9.316;2024-01-10T09:54:03;29.53;;;17.13;;
2784;SDS011;57944;48.722;9.316;2024-01-10T09:56:34;30.53;;;16.23;;
2784;SDS011;57944;48.722;9.316;2024-01-10T09:59:04;31.43;;;16.53;;
2784;SDS011;57944;48.722;9.316;2024-01-10T10:01:40;42.93;;;18.30;;
2784;SDS011;57944;48.722;9.316;2024-01-10T10:04:12;41.20;;;18.80;;
2784;SDS011;57944;48.722;9.316;2024-01-10T10:06:44;33.33;;;19.10;;
2784;SDS011;57944;48.722;9.316;2024-01-10T10:09:15;33.53;;;16.90;;
2784;SDS011;57944;48.722;9.316;2024-01-10T10:11:52;36.70;;;17.70;;
2784;SDS011;57944;48.722;9.316;2024-01-10T10:14:24;28.30;;;16.73;;
2784;SDS011;57944;48.722;9.316;2024-01-10T10:19:49;37.87;;;20.23;;
2784;SDS011;57944;48.722;9.316;2024-01-10T10:22:19;38.90;;;19.77;;
2784;SDS011;57944;48.722;9.316;2024-01-10T10:24:50;26.50;;;17.30;;
2784;SDS011;57944;48.722;9.316;2024-01-10T10:27:21;43.27;;;18.77;;
2784;SDS011;57944;48.722;9.316;2024-01-10T10:29:52;34.87;;;17.10;;
2784;SDS011;57944;48.722;9.316;2024-01-10T10:32:25;31.97;;;18.13;;
2784;SDS011;57944;48.722;9.316;2024-01-10T10:34:56;34.63;;;18.77;;
2784;SDS011;57944;48.722;9.316;2024-01-10T10:37:27;38.30;;;19.83;;
2784;SDS011;57944;48.722;9.316;2024-01-10T10:39:57;31.83;;;17.57;;
2784;SDS011;57944;48.722;9.316;2024-01-10T10:42:28;35.37;;;17.80;;
2784;SDS011;57944;48.722;9.316;2024-01-10T10:45:02;30.73;;;17.37;;
2784;SDS011;57944;48.722;9.316;2024-01-10T10:47:36;37.30;;;17.70;;
2784;SDS011;57944;48.722;9.316;2024-01-10T10:50:13;38.10;;;20.40;;
2784;SDS011;57944;48.722;9.316;2024-01-10T10:52:50;32.73;;;19.13;;
2784;SDS011;57944;48.722;9.316;2024-01-10T10:55:22;34.80;;;17.40;;
2784;SDS011;57944;48.722;9.316;2024-01-10T10:57:54;45.23;;;18.20;;
2784;SDS011;57944;48.722;9.316;2024-01-10T11:00:36;41.60;;;20.53;;
2784;SDS011;57944;48.722;9.316;2024-01-10T11:03:10;37.17;;;18.50;;
2784;SDS011;57944;48.722;9.316;2024-01-10T11:05:41;33.30;;;19.70;;
2784;SDS011;57944;48.722;9.316;2024-01-10T11:08:13;37.00;;;18.27;;
2784;SDS011;57944;48.722;9.316;2024-01-10T11:10:48;33.63;;;19.13;;
2784;SDS011;57944;48.722;9.316;2024-01-10T11:13:27;36.37;;;17.03;;
2784;SDS011;57944;48.722;9.316;2024-01-10T11:19:18;36.73;;;19.43;;
2784;SDS011;57944;48.722;9.316;2024-01-10T11:22:09;37.60;;;18.90;;
2784;SDS011;57944;48.722;9.316;2024-01-10T11:24:51;34.00;;;17.93;;
2784;SDS011;57944;48.722;9.316;2024-01-10T11:27:26;33.97;;;19.03;;
2784;SDS011;57944;48.722;9.316;2024-01-10T11:29:57;31.67;;;20.00;;
2784;SDS011;57944;48.722;9.316;2024-01-10T11:32:29;42.30;;;19.97;;
2784;SDS011;57944;48.722;9.316;2024-01-10T11:35:10;27.17;;;15.67;;
2784;SDS011;57944;48.722;9.316;2024-01-10T11:37:48;35.17;;;18.80;;
2784;SDS011;57944;48.722;9.316;2024-01-10T11:40:24;31.67;;;16.20;;
2784;SDS011;57944;48.722;9.316;2024-01-10T11:43:17;32.47;;;18.10;;
2784;SDS011;57944;48.722;9.316;2024-01-10T11:45:50;37.03;;;18.10;;
2784;SDS011;57944;48.722;9.316;2024-01-10T11:48:27;36.17;;;18.50;;
2784;SDS011;57944;48.722;9.316;2024-01-10T11:51:03;33.17;;;19.53;;
2784;SDS011;57944;48.722;9.316;2024-01-10T11:53:40;39.33;;;21.37;;
2784;SDS011;57944;48.722;9.316;2024-01-10T11:56:13;38.67;;;19.97;;
2784;SDS011;57944;48.722;9.316;2024-01-10T11:59:01;38.27;;;18.07;;
2784;SDS011;57944;48.722;9.316;2024-01-10T12:01:35;39.83;;;19.77;;
2784;SDS011;57944;48.722;9.316;2024-01-10T12:04:06;34.53;;;20.60;;
2784;SDS011;57944;48.722;9.316;2024-01-10T12:06:51;34.13;;;17.90;;
2784;SDS011;57944;48.722;9.316;2024-01-10T12:09:23;33.63;;;18.97;;
2784;SDS011;57944;48.722;9.316;2024-01-10T12:11:55;35.50;;;18.47;;
2784;SDS011;57944;48.722;9.316;2024-01-10T12:14:26;37.27;;;19.97;;
2784;SDS011;57944;48.722;9.316;2024-01-10T12:16:59;37.97;;;19.57;;
2784;SDS011;57944;48.722;9.316;2024-01-10T12:19:31;31.87;;;19.50;;
2784;SDS011;57944;48.722;9.316;2024-01-10T12:22:06;44.37;;;20.40;;
2784;SDS011;57944;48.722;9.316;2024-01-10T12:24:42;42.57;;;20.00;;
2784;SDS011;57944;48.722;9.316;2024-01-10T12:27:16;54.87;;;22.13;;
2784;SDS011;57944;48.722;9.316;2024-01-10T12:29:50;30.70;;;18.17;;
2784;SDS011;57944;48.722;9.316;2024-01-10T12:32:21;32.37;;;18.87;;
2784;SDS011;57944;48.722;9.316;2024-01-10T12:34:59;37.97;;;18.63;;
2784;SDS011;57944;48.722;9.316;2024-01-10T12:37:34;34.97;;;20.10;;
2784;SDS011;57944;48.722;9.316;2024-01-10T12:40:06;42.90;;;20.17;;
2784;SDS011;57944;48.722;9.316;2024-01-10T12:42:38;55.17;;;21.23;;
2784;SDS011;57944;48.722;9.316;2024-01-10T12:45:19;47.53;;;21.53;;
2784;SDS011;57944;48.722;9.316;2024-01-10T12:47:52;37.60;;;19.90;;
2784;SDS011;57944;48.722;9.316;2024-01-10T12:50:23;40.20;;;19.20;;
2784;SDS011;57944;48.722;9.316;2024-01-10T12:52:57;39.47;;;21.00;;
2784;SDS011;57944;48.722;9.316;2024-01-10T12:55:28;38.93;;;20.30;;
2784;SDS011;57944;48.722;9.316;2024-01-10T12:57:59;38.23;;;19.63;;
2784;SDS011;57944;48.722;9.316;2024-01-10T13:00:34;41.20;;;20.17;;
2784;SDS011;57944;48.722;9.316;2024-01-10T13:03:06;45.70;;;20.37;;
2784;SDS011;57944;48.722;9.316;2024-01-10T13:05:37;43.73;;;21.80;;
2784;SDS011;57944;48.722;9.316;2024-01-10T13:08:10;40.10;;;19.60;;
2784;SDS011;57944;48.722;9.316;2024-01-10T13:10:41;40.40;;;19.37;;
2784;SDS011;57944;48.722;9.316;2024-01-10T13:13:12;46.67;;;22.00;;
2784;SDS011;57944;48.722;9.316;2024-01-10T13:15:44;39.40;;;21.60;;
2784;SDS011;57944;48.722;9.316;2024-01-10T13:18:14;44.87;;;22.63;;
2784;SDS011;57944;48.722;9.316;2024-01-10T13:20:46;44.13;;;20.80;;
2784;SDS011;57944;48.722;9.316;2024-01-10T13:23:19;32.97;;;18.93;;
2784;SDS011;57944;48.722;9.316;2024-01-10T13:25:51;35.83;;;20.23;;
2784;SDS011;57944;48.722;9.316;2024-01-10T13:28:22;39.57;;;18.80;;
2784;SDS011;57944;48.722;9.316;2024-01-10T13:30:54;33.43;;;18.20;;
2784;SDS011;57944;48.722;9.316;2024-01-10T13:33:25;34.90;;;19.83;;
2784;SDS011;57944;48.722;9.316;2024-01-10T13:35:56;39.43;;;18.43;;
2784;SDS011;57944;48.722;9.316;2024-01-10T13:38:30;37.63;;;21.10;;
2784;SDS011;57944;48.722;9.316;2024-01-10T13:41:01;45.80;;;19.17;;
2784;SDS011;57944;48.722;9.316;2024-01-10T13:43:32;39.17;;;20.20;;
2784;SDS011;57944;48.722;9.316;2024-01-10T13:46:03;35.47;;;18.67;;
2784;SDS011;57944;48.722;9.316;2024-01-10T13:48:35;35.53;;;18.80;;
2784;SDS011;57944;48.722;9.316;2024-01-10T13:51:06;40.43;;;18.10;;
2784;SDS011;57944;48.722;9.316;2024-01-10T13:53:39;38.90;;;19.93;;
2784;SDS011;57944;48.722;9.316;2024-01-10T13:56:10;34.80;;;18.97;;
2784;SDS011;57944;48.722;9.316;2024-01-10T13:58:41;43.37;;;18.30;;
2784;SDS011;57944;48.722;9.316;2024-01-10T14:01:11;36.00;;;17.13;;
2784;SDS011;57944;48.722;9.316;2024-01-10T14:03:42;37.23;;;18.40;;
2784;SDS011;57944;48.722;9.316;2024-01-10T14:06:13;38.17;;;20.27;;
2784;SDS011;57944;48.722;9.316;2024-01-10T14:08:46;32.17;;;18.10;;
2784;SDS011;57944;48.722;9.316;2024-01-10T14:11:19;38.10;;;19.00;;
2784;SDS011;57944;48.722;9.316;2024-01-10T14:13:50;39.90;;;19.97;;
2784;SDS011;57944;48.722;9.316;2024-01-10T14:16:21;43.03;;;21.00;;
2784;SDS011;57944;48.722;9.316;2024-01-10T14:18:54;49.80;;;20.17;;
2784;SDS011;57944;48.722;9.316;2024-01-10T14:21:25;35.47;;;19.83;;
2784;SDS011;57944;48.722;9.316;2024-01-10T14:23:58;34.50;;;20.23;;
2784;SDS011;57944;48.722;9.316;2024-01-10T14:26:29;47.10;;;20.63;;
2784;SDS011;57944;48.722;9.316;2024-01-10T14:29:00;34.43;;;18.47;;
2784;SDS011;57944;48.722;9.316;2024-01-10T14:31:31;41.30;;;21.77;;
2784;SDS011;57944;48.722;9.316;2024-01-10T14:34:22;36.37;;;19.37;;
2784;SDS011;57944;48.722;9.316;2024-01-10T14:36:52;39.50;;;20.03;;
2784;SDS011;57944;48.722;9.316;2024-01-10T14:39:26;45.10;;;21.93;;
2784;SDS011;57944;48.722;9.316;2024-01-10T14:41:59;47.43;;;20.67;;
2784;SDS011;57944;48.722;9.316;2024-01-10T14:44:30;53.20;;;22.93;;
2784;SDS011;57944;48.722;9.316;2024-01-10T14:47:00;37.10;;;17.83;;
2784;SDS011;57944;48.722;9.316;2024-01-10T14:49:37;38.03;;;18.70;;
2784;SDS011;57944;48.722;9.316;2024-01-10T14:52:08;34.60;;;19.83;;
2784;SDS011;57944;48.722;9.316;2024-01-10T14:54:41;37.63;;;19.60;;
2784;SDS011;57944;48.722;9.316;2024-01-10T14:57:12;34.03;;;20.60;;
2784;SDS011;57944;48.722;9.316;2024-01-10T14:59:43;41.37;;;19.93;;
2784;SDS011;57944;48.722;9.316;2024-01-10T15:02:14;39.13;;;20.43;;
2784;SDS011;57944;48.722;9.316;2024-01-10T15:04:46;40.37;;;20.37;;
2784;SDS011;57944;48.722;9.316;2024-01-10T15:07:17;38.90;;;19.87;;
2784;SDS011;57944;48.722;9.316;2024-01-10T15:09:50;36.33;;;19.77;;